createdAt,value
2018-09-28T00:00:20.252Z,80.90
2018-09-28T00:02:48.617Z,81.10
2018-09-28T00:05:16.792Z,81.20
2018-09-28T00:07:44.915Z,81.30
2018-09-28T00:10:13.021Z,81.90
2018-09-28T00:12:41.118Z,81.80
2018-09-28T00:15:09.289Z,81.50
2018-09-28T00:17:37.421Z,81.70
2018-09-28T00:20:05.716Z,82.20
2018-09-28T00:22:33.827Z,82.20
2018-09-28T00:25:01.999Z,82.30
2018-09-28T00:27:30.152Z,82.20
2018-09-28T00:29:58.276Z,81.30
2018-09-28T00:32:26.351Z,82.70
2018-09-28T00:34:54.505Z,82.50
2018-09-28T00:37:22.636Z,82.00
2018-09-28T00:39:50.819Z,82.00
2018-09-28T00:42:18.945Z,82.50
2018-09-28T00:44:47.064Z,83.10
2018-09-28T00:47:15.185Z,82.50
2018-09-28T00:49:43.387Z,82.60
2018-09-28T00:52:11.563Z,82.80
2018-09-28T00:54:39.725Z,82.50
2018-09-28T00:57:07.907Z,83.30
2018-09-28T00:59:36.056Z,83.20
2018-09-28T01:02:04.537Z,83.50
2018-09-28T01:04:32.672Z,83.50
2018-09-28T01:07:00.862Z,83.80
2018-09-28T01:09:28.993Z,83.50
2018-09-28T01:11:57.143Z,83.90
2018-09-28T01:14:25.290Z,83.30
2018-09-28T01:16:53.407Z,83.70
2018-09-28T01:19:21.567Z,83.30
2018-09-28T01:21:49.705Z,83.90
2018-09-28T01:24:18.082Z,83.90
2018-09-28T01:26:46.220Z,83.90
2018-09-28T01:29:14.394Z,84.10
2018-09-28T01:31:42.551Z,83.50
2018-09-28T01:34:10.698Z,83.70
2018-09-28T01:36:38.845Z,83.40
2018-09-28T01:39:07.776Z,83.20
2018-09-28T01:41:35.962Z,83.00
2018-09-28T01:44:04.181Z,81.60
2018-09-28T01:46:32.410Z,82.30
2018-09-28T01:49:00.483Z,83.10
2018-09-28T01:51:28.643Z,83.20
2018-09-28T01:53:57.488Z,83.30
2018-09-28T01:56:25.596Z,83.50
2018-09-28T01:58:53.782Z,83.50
2018-09-28T02:01:21.872Z,82.90
2018-09-28T02:03:50.011Z,82.90
2018-09-28T02:06:18.144Z,83.00
2018-09-28T02:08:46.265Z,83.10
2018-09-28T02:11:14.462Z,83.40
2018-09-28T02:13:42.539Z,82.80
2018-09-28T02:16:10.713Z,82.90
2018-09-28T02:18:38.844Z,82.70
2018-09-28T02:21:07.084Z,82.00
2018-09-28T02:23:35.259Z,82.50
2018-09-28T02:26:03.451Z,82.50
2018-09-28T02:28:31.566Z,82.00
2018-09-28T02:30:59.685Z,81.20
2018-09-28T02:33:27.818Z,80.90
2018-09-28T02:35:56.012Z,80.70
2018-09-28T02:38:24.174Z,80.40
2018-09-28T02:40:52.341Z,80.80
2018-09-28T02:43:20.494Z,81.20
2018-09-28T02:45:48.604Z,80.50
2018-09-28T02:48:16.707Z,80.00
2018-09-28T02:50:44.873Z,80.50
2018-09-28T02:53:17.457Z,80.10
2018-09-28T02:55:46.348Z,79.40
2018-09-28T02:58:14.510Z,79.60
2018-09-28T03:00:42.673Z,79.50
2018-09-28T03:03:10.785Z,79.90
2018-09-28T03:05:39.340Z,80.10
2018-09-28T03:08:08.188Z,79.80
2018-09-28T03:10:36.460Z,79.60
2018-09-28T03:13:04.800Z,79.70
2018-09-28T03:15:32.932Z,79.60
2018-09-28T03:18:01.045Z,80.00
2018-09-28T03:20:29.209Z,79.60
2018-09-28T03:22:57.358Z,80.00
2018-09-28T03:25:25.493Z,79.80
2018-09-28T03:27:53.632Z,80.10
2018-09-28T03:30:21.767Z,79.80
2018-09-28T03:32:49.890Z,79.80
2018-09-28T03:35:18.037Z,79.80
2018-09-28T03:37:46.183Z,79.60
2018-09-28T03:40:14.285Z,79.60
2018-09-28T03:42:42.466Z,79.80
2018-09-28T03:45:10.662Z,80.20
2018-09-28T03:47:39.733Z,80.10
2018-09-28T03:50:07.874Z,79.70
2018-09-28T03:52:36.066Z,78.90
2018-09-28T03:55:04.207Z,79.00
2018-09-28T03:57:32.309Z,78.70
2018-09-28T04:00:00.489Z,78.80
2018-09-28T04:02:28.655Z,79.00
2018-09-28T04:04:56.726Z,79.50
2018-09-28T04:07:24.914Z,78.80
2018-09-28T04:09:53.023Z,78.90
2018-09-28T04:12:21.118Z,78.80
2018-09-28T04:14:49.297Z,78.50
2018-09-28T04:17:17.458Z,78.20
2018-09-28T04:19:45.598Z,78.60
2018-09-28T04:22:13.742Z,78.30
2018-09-28T04:24:41.854Z,78.90
2018-09-28T04:27:09.934Z,78.70
2018-09-28T04:29:38.047Z,78.60
2018-09-28T04:32:08.045Z,78.70
2018-09-28T04:34:36.250Z,79.00
2018-09-28T04:37:04.526Z,79.00
2018-09-28T04:39:32.725Z,79.10
2018-09-28T04:42:00.936Z,78.80
2018-09-28T04:47:03.676Z,80.00
2018-09-28T04:49:31.743Z,80.20
2018-09-28T04:51:59.941Z,80.10
2018-09-28T04:54:28.078Z,79.80
2018-09-28T04:56:56.308Z,80.20
2018-09-28T04:59:24.481Z,80.90
2018-09-28T05:01:52.854Z,80.40
2018-09-28T05:04:22.520Z,81.30
2018-09-28T05:06:50.762Z,80.90
2018-09-28T05:09:18.844Z,80.70
2018-09-28T05:11:46.950Z,80.90
2018-09-28T05:14:15.067Z,81.60
2018-09-28T05:16:43.419Z,82.00
2018-09-28T05:19:11.541Z,82.10
2018-09-28T05:21:39.716Z,82.10
2018-09-28T05:24:08.006Z,82.10
2018-09-28T05:26:36.148Z,82.10
2018-09-28T05:29:04.323Z,82.50
2018-09-28T05:31:32.900Z,82.80
2018-09-28T05:34:01.049Z,82.50
2018-09-28T05:36:29.229Z,82.40
2018-09-28T05:38:57.328Z,83.30
2018-09-28T05:41:25.446Z,83.10
2018-09-28T05:43:53.689Z,82.80
2018-09-28T05:46:21.848Z,82.30
2018-09-28T05:48:49.989Z,83.10
2018-09-28T05:51:18.271Z,83.60
2018-09-28T05:53:46.476Z,83.00
2018-09-28T05:56:14.610Z,83.00
2018-09-28T05:58:48.216Z,81.70
2018-09-28T06:01:28.516Z,81.20
2018-09-28T06:04:01.944Z,80.80
2018-09-28T06:06:30.093Z,80.00
2018-09-28T06:08:58.278Z,79.80
2018-09-28T06:11:26.379Z,78.60
2018-09-28T06:13:54.501Z,77.20
2018-09-28T06:16:22.620Z,76.30
2018-09-28T06:18:50.774Z,75.90
2018-09-28T06:21:18.957Z,76.40
2018-09-28T06:23:47.142Z,73.80
2018-09-28T06:26:15.254Z,73.20
2018-09-28T06:28:43.419Z,74.10
2018-09-28T06:31:11.557Z,70.40
2018-09-28T06:33:39.769Z,67.10
2018-09-28T06:36:07.902Z,61.80
2018-09-28T06:38:36.045Z,51.70
2018-09-28T06:41:04.274Z,38.60
2018-09-28T06:43:32.404Z,31.30
2018-09-28T06:46:00.483Z,28.50
2018-09-28T06:48:28.584Z,16.90
2018-09-28T06:50:56.688Z,14.00
2018-09-28T06:53:24.822Z,13.40
2018-09-28T06:55:52.994Z,7.50
2018-09-28T06:58:21.509Z,6.30
2018-09-28T07:00:49.667Z,3.40
2018-09-28T07:03:17.822Z,3.40
2018-09-28T07:05:45.977Z,3.90
2018-09-28T07:08:14.147Z,1.00
2018-09-28T07:10:42.726Z,1.00
2018-09-28T07:13:10.881Z,1.00
2018-09-28T07:15:39.009Z,1.20
2018-09-28T07:18:07.103Z,1.20
2018-09-28T07:20:35.216Z,1.00
2018-09-28T07:23:03.331Z,1.00
2018-09-28T07:25:31.485Z,1.20
2018-09-28T07:27:59.656Z,2.40
2018-09-28T07:30:27.765Z,4.20
2018-09-28T07:32:55.917Z,4.30
2018-09-28T07:35:24.055Z,4.90
2018-09-28T07:37:52.219Z,4.90
2018-09-28T07:40:20.386Z,5.70
2018-09-28T07:42:48.549Z,7.70
2018-09-28T07:45:16.695Z,7.20
2018-09-28T07:47:44.890Z,7.40
2018-09-28T07:50:13.057Z,8.80
2018-09-28T07:52:41.168Z,8.50
2018-09-28T07:55:09.512Z,8.00
2018-09-28T07:57:37.657Z,10.40
2018-09-28T08:00:05.959Z,10.40
2018-09-28T08:02:34.116Z,10.00
2018-09-28T08:05:02.285Z,10.30
2018-09-28T08:07:30.409Z,10.90
2018-09-28T08:09:58.509Z,11.30
2018-09-28T08:12:26.730Z,11.90
2018-09-28T08:14:55.009Z,12.90
2018-09-28T08:17:23.102Z,12.90
2018-09-28T08:19:51.261Z,12.90
2018-09-28T08:22:19.393Z,14.00
2018-09-28T08:24:47.538Z,12.90
2018-09-28T08:27:15.624Z,13.80
2018-09-28T08:29:43.786Z,14.50
2018-09-28T08:32:11.961Z,16.10
2018-09-28T08:34:40.131Z,16.50
2018-09-28T08:37:08.308Z,18.40
2018-09-28T08:39:36.422Z,18.90
2018-09-28T08:42:04.505Z,21.60
2018-09-28T08:44:32.723Z,20.70
2018-09-28T08:47:00.871Z,21.50
2018-09-28T08:49:29.143Z,21.00
2018-09-28T08:51:57.568Z,20.60
2018-09-28T08:54:25.713Z,20.70
2018-09-28T08:56:53.872Z,21.30
2018-09-28T08:59:21.989Z,21.20
2018-09-28T09:01:50.158Z,22.30
2018-09-28T09:04:18.253Z,23.90
2018-09-28T09:06:46.484Z,24.50
2018-09-28T09:09:14.665Z,24.70
2018-09-28T09:11:42.849Z,24.50
2018-09-28T09:14:11.041Z,25.30
2018-09-28T09:16:39.189Z,26.00
2018-09-28T09:19:07.336Z,25.90
2018-09-28T09:21:35.484Z,27.00
2018-09-28T09:24:03.691Z,28.40
2018-09-28T09:26:31.835Z,28.90
2018-09-28T09:28:59.980Z,27.30
2018-09-28T09:31:28.075Z,28.40
2018-09-28T09:33:56.245Z,29.70
2018-09-28T09:36:24.435Z,30.00
2018-09-28T09:38:52.624Z,30.90
2018-09-28T09:41:20.836Z,30.00
2018-09-28T09:43:48.986Z,28.90
2018-09-28T09:46:17.157Z,31.20
2018-09-28T09:48:45.292Z,35.60
2018-09-28T09:51:13.560Z,38.20
2018-09-28T09:53:41.672Z,44.50
2018-09-28T09:56:09.810Z,46.50
2018-09-28T09:58:38.030Z,45.60
2018-09-28T10:01:07.220Z,50.80
2018-09-28T10:03:40.752Z,52.70
2018-09-28T10:06:09.885Z,55.40
2018-09-28T10:08:39.082Z,51.70
2018-09-28T10:11:07.233Z,52.00
2018-09-28T10:13:35.406Z,55.50
2018-09-28T10:16:03.569Z,56.10
2018-09-28T10:18:31.793Z,55.30
2018-09-28T10:20:59.985Z,55.00
2018-09-28T10:23:28.138Z,56.10
2018-09-28T10:25:56.348Z,53.10
2018-09-28T10:28:24.511Z,50.70
2018-09-28T10:30:52.639Z,51.30
2018-09-28T10:33:21.025Z,51.90
2018-09-28T10:35:49.208Z,56.20
2018-09-28T10:38:17.345Z,57.00
2018-09-28T10:40:45.599Z,61.00
2018-09-28T10:43:13.708Z,66.80
2018-09-28T10:45:41.957Z,71.10
2018-09-28T10:48:10.066Z,72.30
2018-09-28T10:50:38.245Z,73.00
2018-09-28T10:53:06.491Z,75.40
2018-09-28T10:55:34.637Z,76.20
2018-09-28T10:58:02.838Z,78.60
2018-09-28T11:00:31.050Z,79.50
2018-09-28T11:02:59.491Z,80.00
2018-09-28T11:05:27.633Z,83.40
2018-09-28T11:07:55.770Z,83.30
2018-09-28T11:10:24.021Z,84.90
2018-09-28T11:12:52.155Z,84.10
2018-09-28T11:15:20.372Z,85.30
2018-09-28T11:17:48.577Z,85.50
2018-09-28T11:20:16.694Z,86.00
2018-09-28T11:22:44.871Z,86.80
2018-09-28T11:25:13.016Z,86.50
2018-09-28T11:27:41.211Z,86.00
2018-09-28T11:30:09.325Z,82.80
2018-09-28T11:32:37.432Z,80.10
2018-09-28T11:35:05.579Z,80.60
2018-09-28T11:37:33.815Z,80.90
2018-09-28T11:40:02.011Z,81.80
2018-09-28T11:42:30.148Z,83.30
2018-09-28T11:44:58.326Z,84.10
2018-09-28T11:47:26.505Z,85.70
2018-09-28T11:49:54.707Z,85.50
2018-09-28T11:52:22.876Z,83.80
2018-09-28T11:54:51.055Z,82.80
2018-09-28T11:57:19.260Z,82.30
2018-09-28T11:59:47.377Z,83.80
2018-09-28T12:02:15.524Z,84.90
2018-09-28T12:04:43.628Z,86.00
2018-09-28T12:07:11.818Z,87.10
2018-09-28T12:09:40.076Z,86.60
2018-09-28T12:12:08.197Z,85.50
2018-09-28T12:14:36.349Z,84.20
2018-09-28T12:17:04.546Z,84.50
2018-09-28T12:19:32.729Z,82.90
2018-09-28T12:22:00.979Z,82.80
2018-09-28T12:24:29.730Z,84.00
2018-09-28T12:26:57.954Z,84.30
2018-09-28T12:29:26.088Z,86.00
2018-09-28T12:31:54.264Z,84.10
2018-09-28T12:34:22.494Z,83.60
2018-09-28T12:36:50.762Z,85.50
2018-09-28T12:39:25.456Z,85.10
2018-09-28T12:41:53.641Z,83.80
2018-09-28T12:44:21.897Z,84.30
2018-09-28T12:46:49.996Z,84.40
2018-09-28T12:49:18.240Z,83.80
2018-09-28T12:51:46.398Z,85.90
2018-09-28T12:54:14.617Z,86.30
2018-09-28T12:56:42.775Z,82.00
2018-09-28T12:59:11.250Z,82.30
2018-09-28T13:01:39.461Z,81.40
2018-09-28T13:04:11.827Z,78.00
2018-09-28T13:06:40.138Z,80.10
2018-09-28T13:09:08.248Z,81.80
2018-09-28T13:11:36.409Z,79.40
2018-09-28T13:14:04.559Z,77.30
2018-09-28T13:16:32.731Z,80.00
2018-09-28T13:19:00.877Z,79.90
2018-09-28T13:21:29.021Z,79.20
2018-09-28T13:23:57.591Z,77.80
2018-09-28T13:26:25.906Z,76.50
2018-09-28T13:28:54.025Z,80.70
2018-09-28T13:31:22.139Z,78.20
2018-09-28T13:33:50.292Z,78.60
2018-09-28T13:36:18.477Z,77.00
2018-09-28T13:38:46.710Z,78.30
2018-09-28T13:41:14.834Z,77.20
2018-09-28T13:43:42.964Z,75.00
2018-09-28T13:46:11.283Z,73.80
2018-09-28T13:48:39.572Z,74.30
2018-09-28T13:51:07.740Z,75.40
2018-09-28T13:53:35.964Z,74.80
2018-09-28T13:56:04.199Z,73.50
2018-09-28T13:58:32.389Z,73.30
2018-09-28T14:01:00.620Z,74.60
2018-09-28T14:03:28.813Z,74.80
2018-09-28T14:05:57.587Z,74.10
2018-09-28T14:08:25.829Z,71.30
2018-09-28T14:10:53.944Z,74.10
2018-09-28T14:13:22.122Z,73.80
2018-09-28T14:15:50.245Z,74.60
2018-09-28T14:18:18.480Z,72.80
2018-09-28T14:20:46.658Z,74.20
2018-09-28T14:23:14.791Z,73.10
2018-09-28T14:25:42.973Z,71.70
2018-09-28T14:28:11.195Z,72.20
2018-09-28T14:30:39.383Z,73.40
2018-09-28T14:33:07.558Z,75.40
2018-09-28T14:35:35.749Z,74.30
2018-09-28T14:38:03.915Z,75.50
2018-09-28T14:40:32.180Z,75.50
2018-09-28T14:43:00.386Z,75.40
2018-09-28T14:45:28.597Z,73.20
2018-09-28T14:47:56.802Z,71.50
2018-09-28T14:50:25.087Z,69.50
2018-09-28T14:52:53.269Z,69.40
2018-09-28T14:55:21.430Z,69.70
2018-09-28T14:57:49.584Z,72.10
2018-09-28T15:00:17.826Z,73.30
2018-09-28T15:02:46.026Z,73.60
2018-09-28T15:05:14.218Z,71.90
2018-09-28T15:07:42.419Z,71.20
2018-09-28T15:10:10.698Z,72.20
2018-09-28T15:12:38.964Z,69.10
2018-09-28T15:15:07.351Z,64.90
2018-09-28T15:17:35.432Z,58.50
2018-09-28T15:20:03.566Z,54.40
2018-09-28T15:22:31.733Z,52.70
2018-09-28T15:24:59.868Z,49.40
2018-09-28T15:27:28.050Z,48.80
2018-09-28T15:29:56.237Z,46.80
2018-09-28T15:32:24.363Z,44.60
2018-09-28T15:34:52.549Z,44.30
2018-09-28T15:37:20.659Z,35.80
2018-09-28T15:39:48.840Z,38.50
2018-09-28T15:42:17.037Z,40.80
2018-09-28T15:44:45.305Z,42.30
2018-09-28T15:47:13.450Z,44.00
2018-09-28T15:49:41.611Z,46.40
2018-09-28T15:52:16.230Z,45.70
2018-09-28T15:54:44.381Z,45.70
2018-09-28T15:57:12.606Z,40.50
2018-09-28T15:59:40.859Z,40.20
2018-09-28T16:02:09.113Z,39.60
2018-09-28T16:04:37.324Z,37.50
2018-09-28T16:07:05.594Z,39.80
2018-09-28T16:09:33.792Z,40.00
2018-09-28T16:12:02.052Z,39.40
2018-09-28T16:14:30.238Z,35.20
2018-09-28T16:16:58.611Z,36.30
2018-09-28T16:19:26.808Z,39.40
2018-09-28T16:21:54.940Z,38.60
2018-09-28T16:24:23.084Z,39.70
2018-09-28T16:26:51.226Z,37.30
2018-09-28T16:29:19.343Z,39.60
2018-09-28T16:31:47.501Z,39.80
2018-09-28T16:34:15.649Z,38.80
2018-09-28T16:36:43.747Z,40.80
2018-09-28T16:39:12.478Z,38.50
2018-09-28T16:41:41.266Z,42.20
2018-09-28T16:44:09.384Z,39.80
2018-09-28T16:46:37.517Z,42.50
2018-09-28T16:49:05.781Z,43.60
2018-09-28T16:51:34.006Z,44.10
2018-09-28T16:54:02.167Z,44.60
2018-09-28T16:56:30.314Z,41.50
2018-09-28T16:58:58.411Z,42.90
2018-09-28T17:01:26.582Z,44.90
2018-09-28T17:03:54.728Z,43.70
2018-09-28T17:06:23.114Z,46.00
2018-09-28T17:08:51.347Z,46.10
2018-09-28T17:11:19.529Z,40.50
2018-09-28T17:13:47.824Z,40.20
2018-09-28T17:16:16.051Z,39.90
2018-09-28T17:18:44.299Z,40.20
2018-09-28T17:21:13.133Z,37.80
2018-09-28T17:23:41.455Z,37.00
2018-09-28T17:26:09.682Z,36.50
2018-09-28T17:28:37.862Z,39.40
2018-09-28T17:31:06.018Z,39.20
2018-09-28T17:33:34.183Z,39.40
2018-09-28T17:36:02.366Z,38.50
2018-09-28T17:38:30.492Z,40.30
2018-09-28T17:40:58.684Z,41.10
2018-09-28T17:43:26.824Z,38.70
2018-09-28T17:45:55.063Z,35.00
2018-09-28T17:48:23.173Z,36.40
2018-09-28T17:50:51.314Z,37.80
2018-09-28T17:53:19.458Z,38.00
2018-09-28T17:55:47.552Z,37.70
2018-09-28T17:58:15.733Z,36.00
2018-09-28T18:00:43.855Z,38.30
2018-09-28T18:03:11.967Z,36.20
2018-09-28T18:05:40.192Z,34.00
2018-09-28T18:08:08.379Z,31.70
2018-09-28T18:10:36.580Z,30.00
2018-09-28T18:13:04.709Z,29.40
2018-09-28T18:15:32.844Z,28.40
2018-09-28T18:18:00.983Z,29.10
2018-09-28T18:20:29.124Z,29.60
2018-09-28T18:22:57.263Z,26.00
2018-09-28T18:25:25.456Z,27.50
2018-09-28T18:27:53.587Z,26.20
2018-09-28T18:30:22.201Z,25.50
2018-09-28T18:32:50.361Z,27.20
2018-09-28T18:35:18.536Z,22.20
2018-09-28T18:37:47.053Z,23.30
2018-09-28T18:40:15.321Z,22.10
2018-09-28T18:42:43.633Z,23.60
2018-09-28T18:45:12.146Z,23.90
2018-09-28T18:47:40.286Z,25.80
2018-09-28T18:50:08.680Z,23.30
2018-09-28T18:52:37.128Z,24.90
2018-09-28T18:55:05.734Z,23.70
2018-09-28T18:57:33.885Z,25.90
2018-09-28T19:00:02.049Z,25.00
2018-09-28T19:02:30.425Z,26.30
2018-09-28T19:04:58.621Z,27.30
2018-09-28T19:07:26.804Z,26.10
2018-09-28T19:09:55.027Z,28.80
2018-09-28T19:12:23.191Z,27.30
2018-09-28T19:14:51.317Z,28.20
2018-09-28T19:17:19.431Z,27.90
2018-09-28T19:19:47.527Z,27.00
2018-09-28T19:22:15.669Z,25.80
2018-09-28T19:24:43.755Z,27.10
2018-09-28T19:27:11.884Z,27.70
2018-09-28T19:29:40.071Z,27.30
2018-09-28T19:32:08.180Z,27.40
2018-09-28T19:34:36.384Z,28.90
2018-09-28T19:37:04.550Z,29.00
2018-09-28T19:39:32.799Z,29.40
2018-09-28T19:42:00.990Z,28.90
2018-09-28T19:44:29.153Z,31.10
2018-09-28T19:46:57.313Z,31.70
2018-09-28T19:49:25.439Z,29.90
2018-09-28T19:51:53.685Z,31.50
2018-09-28T19:54:21.797Z,30.40
2018-09-28T19:56:49.951Z,31.70
2018-09-28T19:59:18.286Z,32.00
2018-09-28T20:01:46.430Z,31.90
2018-09-28T20:04:14.557Z,31.90
2018-09-28T20:06:42.690Z,31.00
2018-09-28T20:09:12.355Z,30.50
2018-09-28T20:11:41.187Z,32.00
2018-09-28T20:14:09.385Z,34.30
2018-09-28T20:16:37.499Z,34.60
2018-09-28T20:19:05.827Z,33.80
2018-09-28T20:21:33.907Z,35.10
2018-09-28T20:24:02.007Z,35.00
2018-09-28T20:26:30.111Z,33.20
2018-09-28T20:28:58.246Z,36.30
2018-09-28T20:31:26.673Z,36.80
2018-09-28T20:33:54.787Z,33.40
2018-09-28T20:36:22.890Z,34.60
2018-09-28T20:38:51.275Z,33.30
2018-09-28T20:41:19.779Z,36.00
2018-09-28T20:43:47.993Z,34.30
2018-09-28T20:46:16.115Z,33.90
2018-09-28T20:48:45.395Z,35.00
2018-09-28T20:51:13.492Z,35.50
2018-09-28T20:53:41.604Z,37.40
2018-09-28T20:56:09.759Z,36.80
2018-09-28T20:58:37.844Z,37.40
2018-09-28T21:01:06.018Z,38.00
2018-09-28T21:03:34.104Z,35.90
2018-09-28T21:06:02.291Z,37.00
2018-09-28T21:08:30.515Z,37.10
2018-09-28T21:10:58.624Z,40.00
2018-09-28T21:13:27.184Z,39.50
2018-09-28T21:15:55.320Z,39.90
2018-09-28T21:18:23.460Z,41.20
2018-09-28T21:20:51.589Z,40.50
2018-09-28T21:25:54.124Z,40.50
2018-09-28T21:28:22.296Z,42.20
2018-09-28T21:30:50.430Z,46.20
2018-09-28T21:33:18.549Z,49.80
2018-09-28T21:35:46.659Z,52.10
2018-09-28T21:38:14.776Z,54.80
2018-09-28T21:40:42.898Z,55.50
2018-09-28T21:43:11.024Z,55.90
2018-09-28T21:45:39.211Z,54.80
2018-09-28T21:48:07.315Z,55.80
2018-09-28T21:50:35.431Z,56.90
2018-09-28T21:53:03.540Z,56.90
2018-09-28T21:55:31.988Z,57.80
2018-09-28T21:58:00.125Z,59.40
2018-09-28T22:00:28.247Z,59.50
2018-09-28T22:02:56.731Z,60.90
2018-09-28T22:05:24.877Z,62.50
2018-09-28T22:07:53.007Z,62.40
2018-09-28T22:10:21.136Z,62.80
2018-09-28T22:12:49.215Z,63.40
2018-09-28T22:15:17.367Z,63.20
2018-09-28T22:17:45.502Z,63.80
2018-09-28T22:20:13.645Z,63.60
2018-09-28T22:22:41.816Z,64.30
2018-09-28T22:25:10.123Z,64.90
2018-09-28T22:27:38.275Z,65.10
2018-09-28T22:30:06.365Z,64.00
2018-09-28T22:32:34.470Z,64.60
2018-09-28T22:35:02.701Z,66.30
2018-09-28T22:37:30.794Z,67.10
2018-09-28T22:39:58.889Z,67.90
2018-09-28T22:42:27.020Z,67.80
2018-09-28T22:44:55.188Z,69.20
2018-09-28T22:47:23.343Z,68.10
2018-09-28T22:49:51.473Z,67.60
2018-09-28T22:52:19.600Z,67.40
2018-09-28T22:54:47.715Z,68.20
2018-09-28T22:57:15.810Z,68.70
2018-09-28T22:59:43.908Z,68.30
2018-09-28T23:02:11.978Z,69.00
2018-09-28T23:04:40.100Z,69.40
2018-09-28T23:07:08.223Z,69.00
2018-09-28T23:09:36.356Z,69.20
2018-09-28T23:12:04.446Z,69.00
2018-09-28T23:14:32.544Z,69.60
2018-09-28T23:17:00.655Z,70.70
2018-09-28T23:19:28.727Z,71.40
2018-09-28T23:21:57.149Z,71.90
2018-09-28T23:24:25.295Z,72.20
2018-09-28T23:26:53.409Z,71.50
2018-09-28T23:29:21.532Z,70.30
2018-09-28T23:31:49.655Z,70.30
2018-09-28T23:34:17.738Z,71.00
2018-09-28T23:36:45.880Z,70.80
2018-09-28T23:39:14.028Z,71.30
2018-09-28T23:41:42.165Z,71.50
2018-09-28T23:44:10.881Z,72.40
2018-09-28T23:46:39.368Z,71.20
2018-09-28T23:49:07.841Z,70.00
2018-09-28T23:51:35.981Z,70.90
2018-09-28T23:54:04.083Z,70.80
2018-09-28T23:56:32.257Z,70.60
2018-09-28T23:59:00.373Z,70.20
